< < Back
Terminal Aerodrome Forecast


Current Version              Previous Versions:   1  2  3  4  5  6  7  8  9  

Terminal Aerodrome Forecast

221
FTUS42 KCHS 290026 AAA
TAFSAV
TAF AMD
KSAV 290026Z 2900/2924 VRB10KT 6SM -TSRA SCT030 BKN050CB
     FM290100 VRB10KT 4SM TSRA BR SCT020 BKN030CB
      TEMPO 2901/2903 1/2SM +TSRA FG BKN025CB
     FM290400 VRB03KT P6SM SCT025 BKN070
     FM291300 29004KT P6SM SCT035 SCT060
     FM292100 12007KT P6SM SCT040 SCT080=

Latest METAR

377
SAUS80 KWBC 290500 RRB
MTRSAV
METAR KSAV 290453Z AUTO 19003KT 10SM CLR 23/20 A2995 RMK AO2 SLP140
T02280200 403390222 TSNO


USA.gov is the U.S. government's official web portal to all federal, state and local government web resources and services.